Naples, Florida
Current Conditions -  °F | °C
As of 12:14 AM on Sunday 23 Nov 2014 (Local Time) from KAPF Reporting Station
Scattered Clouds Scattered Clouds  
Wind Chill: 72°   Ceiling: Unl
Heat Index: 72°   Visibility: 10mi
Dew Point: 71°   Wind: 8mph
Humidity: 97%   Direction: 90°E
Pressure: 30.03"   Gusts: NA
Location:  26.14°N, 81.79°W
Report Text: KAPF 230514Z AUTO 09007KT 10SM FEW018 SCT046 22/22 A3003 RMK AO2 T02220217
Loading
Personal Weather Stations






























Interactive Weather Map New forecast layout! Learn more

10-Day Weather Forecast

Advertisements
Track Severe Weather on mobile